createdAt,value
2023-05-18T00:01:31.761Z,7.90
2023-05-18T00:04:04.306Z,9.40
2023-05-18T00:06:35.158Z,9.50
2023-05-18T00:09:04.675Z,7.80
2023-05-18T00:11:39.748Z,11.33
2023-05-18T00:14:09.434Z,6.37
2023-05-18T00:16:38.757Z,8.60
2023-05-18T00:19:09.666Z,6.43
2023-05-18T00:21:42.052Z,11.93
2023-05-18T00:24:12.320Z,13.83
2023-05-18T00:26:42.812Z,9.00
2023-05-18T00:29:15.723Z,7.57
2023-05-18T00:31:45.639Z,6.30
2023-05-18T00:34:16.862Z,7.50
2023-05-18T00:36:50.431Z,4.13
2023-05-18T00:39:21.034Z,6.67
2023-05-18T00:41:51.318Z,7.33
2023-05-18T00:44:20.962Z,5.27
2023-05-18T00:46:52.740Z,6.83
2023-05-18T00:49:24.522Z,9.67
2023-05-18T00:51:58.802Z,13.87
2023-05-18T00:54:29.683Z,6.67
2023-05-18T00:57:02.322Z,8.13
2023-05-18T00:59:32.848Z,6.97
2023-05-18T01:02:03.345Z,6.23
2023-05-18T01:04:34.400Z,5.60
2023-05-18T01:07:07.706Z,7.83
2023-05-18T01:09:38.666Z,9.10
2023-05-18T01:12:20.415Z,7.00
2023-05-18T01:14:56.692Z,10.93
2023-05-18T01:17:45.177Z,7.47
2023-05-18T01:20:24.041Z,6.83
2023-05-18T01:23:17.917Z,6.27
2023-05-18T01:25:58.694Z,5.90
2023-05-18T01:28:35.018Z,6.07
2023-05-18T01:31:05.802Z,7.00
2023-05-18T01:33:37.540Z,7.33
2023-05-18T01:36:07.615Z,6.43
2023-05-18T01:38:39.032Z,6.77
2023-05-18T01:41:17.199Z,7.20
2023-05-18T01:43:55.440Z,7.43
2023-05-18T01:46:37.093Z,7.00
2023-05-18T01:49:14.598Z,6.17
2023-05-18T01:51:48.131Z,9.50
2023-05-18T01:54:21.397Z,8.87
2023-05-18T01:56:54.055Z,7.07
2023-05-18T01:59:26.439Z,4.50
2023-05-18T02:02:00.677Z,5.60
2023-05-18T02:04:31.118Z,7.73
2023-05-18T02:07:00.584Z,4.80
2023-05-18T02:09:30.550Z,5.70
2023-05-18T02:11:59.507Z,8.57
2023-05-18T02:14:31.894Z,5.77
2023-05-18T02:17:01.501Z,5.30
2023-05-18T02:19:32.692Z,6.40
2023-05-18T02:22:02.803Z,9.77
2023-05-18T02:24:41.295Z,5.70
2023-05-18T02:27:11.947Z,7.93
2023-05-18T02:29:48.470Z,10.67
2023-05-18T02:32:18.981Z,9.70
2023-05-18T02:34:50.399Z,10.87
2023-05-18T02:37:23.490Z,7.17
2023-05-18T02:39:54.042Z,12.57
2023-05-18T02:42:26.861Z,8.13
2023-05-18T02:44:58.914Z,7.70
2023-05-18T02:47:29.212Z,7.57
2023-05-18T02:49:59.217Z,8.60
2023-05-18T02:52:30.721Z,11.30
2023-05-18T02:54:59.618Z,6.60
2023-05-18T02:57:29.664Z,7.90
2023-05-18T03:00:00.361Z,12.67
2023-05-18T03:02:31.037Z,5.47
2023-05-18T03:05:00.621Z,7.97
2023-05-18T03:07:29.933Z,5.50
2023-05-18T03:09:59.905Z,7.63
2023-05-18T03:12:29.553Z,4.83
2023-05-18T03:15:00.359Z,8.23
2023-05-18T03:17:29.924Z,5.30
2023-05-18T03:19:58.884Z,8.60
2023-05-18T03:22:28.824Z,10.63
2023-05-18T03:24:58.114Z,9.00
2023-05-18T03:27:28.049Z,8.73
2023-05-18T03:29:58.969Z,8.10
2023-05-18T03:32:29.321Z,7.60
2023-05-18T03:35:01.940Z,8.43
2023-05-18T03:37:32.688Z,7.60
2023-05-18T03:40:12.065Z,9.17
2023-05-18T03:42:44.777Z,6.83
2023-05-18T03:45:16.374Z,6.53
2023-05-18T03:47:46.176Z,9.73
2023-05-18T03:50:20.669Z,5.97
2023-05-18T03:52:53.250Z,7.43
2023-05-18T03:55:26.751Z,8.67
2023-05-18T03:57:57.106Z,9.20
2023-05-18T04:00:30.485Z,8.10
2023-05-18T04:02:59.469Z,6.20
2023-05-18T04:05:29.178Z,9.70
2023-05-18T04:07:58.828Z,12.80
2023-05-18T04:10:30.702Z,12.57
2023-05-18T04:13:00.053Z,12.90
2023-05-18T04:15:31.358Z,15.70
2023-05-18T04:18:03.380Z,9.40
2023-05-18T04:20:33.760Z,13.53
2023-05-18T04:23:04.874Z,9.60
2023-05-18T04:25:39.490Z,6.87
2023-05-18T04:28:10.352Z,7.53
2023-05-18T04:30:41.929Z,15.83
2023-05-18T04:33:13.071Z,10.53
2023-05-18T04:35:43.358Z,11.07
2023-05-18T04:38:15.679Z,13.07
2023-05-18T04:40:45.132Z,11.10
2023-05-18T04:43:14.730Z,9.37
2023-05-18T04:45:47.267Z,11.97
2023-05-18T04:48:17.870Z,10.77
2023-05-18T04:50:48.556Z,11.10
2023-05-18T04:53:19.612Z,12.03
2023-05-18T04:55:52.444Z,22.17
2023-05-18T04:58:22.665Z,21.03
2023-05-18T05:00:53.473Z,20.90
2023-05-18T05:03:22.964Z,11.90
2023-05-18T05:05:54.665Z,9.67
2023-05-18T05:08:25.342Z,7.37
2023-05-18T05:10:55.172Z,11.67
2023-05-18T05:13:27.152Z,9.73
2023-05-18T05:15:58.734Z,9.53
2023-05-18T05:18:30.320Z,8.67
2023-05-18T05:21:00.827Z,5.27
2023-05-18T05:23:30.938Z,7.20
2023-05-18T05:25:59.989Z,8.70
2023-05-18T05:28:29.635Z,7.47
2023-05-18T05:31:00.506Z,5.40
2023-05-18T05:33:30.250Z,7.83
2023-05-18T05:35:59.961Z,5.20
2023-05-18T05:38:31.701Z,7.77
2023-05-18T05:41:01.170Z,15.37
2023-05-18T05:43:34.663Z,12.53
2023-05-18T05:46:06.878Z,13.33
2023-05-18T05:48:39.616Z,7.50
2023-05-18T05:51:12.061Z,6.47
2023-05-18T05:53:44.156Z,6.90
2023-05-18T05:56:13.779Z,6.37
2023-05-18T05:58:44.699Z,7.20
2023-05-18T06:01:15.609Z,10.33
2023-05-18T06:03:45.764Z,6.67
2023-05-18T06:06:15.575Z,8.33
2023-05-18T06:08:44.974Z,9.83
2023-05-18T06:11:14.671Z,6.03
2023-05-18T06:13:44.270Z,4.23
2023-05-18T06:16:17.255Z,6.27
2023-05-18T06:18:47.156Z,5.77
2023-05-18T06:21:16.796Z,5.20
2023-05-18T06:23:46.098Z,6.13
2023-05-18T06:26:29.274Z,5.53
2023-05-18T06:29:00.309Z,4.97
2023-05-18T06:31:33.319Z,6.50
2023-05-18T06:34:03.258Z,7.23
2023-05-18T06:36:33.454Z,6.93
2023-05-18T06:39:03.187Z,7.40
2023-05-18T06:41:32.585Z,7.27
2023-05-18T06:44:02.603Z,4.43
2023-05-18T06:46:34.304Z,8.50
2023-05-18T06:49:05.430Z,7.53
2023-05-18T06:51:35.718Z,6.20
2023-05-18T06:54:05.216Z,6.47
2023-05-18T06:56:35.011Z,9.13
2023-05-18T06:59:04.838Z,5.57
2023-05-18T07:01:36.685Z,7.60
2023-05-18T07:04:06.856Z,9.17
2023-05-18T07:06:36.822Z,9.03
2023-05-18T07:09:07.874Z,7.40
2023-05-18T07:11:37.947Z,6.50
2023-05-18T07:14:07.140Z,5.20
2023-05-18T07:16:40.885Z,3.50
2023-05-18T07:19:09.989Z,5.13
2023-05-18T07:21:38.622Z,6.93
2023-05-18T07:24:08.499Z,5.77
2023-05-18T07:26:38.236Z,7.30
2023-05-18T07:29:07.883Z,5.63
2023-05-18T07:31:46.460Z,6.47
2023-05-18T07:34:15.416Z,5.37
2023-05-18T07:36:46.073Z,7.17
2023-05-18T07:39:19.812Z,4.93
2023-05-18T07:41:53.592Z,8.10
2023-05-18T07:44:28.096Z,9.37
2023-05-18T07:47:01.690Z,7.43
2023-05-18T07:49:34.662Z,8.20
2023-05-18T07:52:04.140Z,6.53
2023-05-18T07:54:35.917Z,6.00
2023-05-18T07:57:06.084Z,7.50
2023-05-18T07:59:34.707Z,8.60
2023-05-18T08:02:06.852Z,5.13
2023-05-18T08:04:37.491Z,7.73
2023-05-18T08:07:07.307Z,7.93
2023-05-18T08:09:37.972Z,7.10
2023-05-18T08:12:10.015Z,7.20
2023-05-18T08:14:45.368Z,5.03
2023-05-18T08:17:16.413Z,4.37
2023-05-18T08:19:56.316Z,6.97
2023-05-18T08:22:25.632Z,4.37
2023-05-18T08:24:56.786Z,6.37
2023-05-18T08:27:26.922Z,5.83
2023-05-18T08:29:56.728Z,3.90
2023-05-18T08:32:32.703Z,4.87
2023-05-18T08:35:02.362Z,4.97
2023-05-18T08:37:33.682Z,7.27
2023-05-18T08:40:04.875Z,4.20
2023-05-18T08:42:50.058Z,6.40
2023-05-18T08:45:30.768Z,3.80
2023-05-18T08:48:04.764Z,7.13
2023-05-18T08:50:38.208Z,7.77
2023-05-18T08:53:08.827Z,4.83
2023-05-18T08:55:39.093Z,4.40
2023-05-18T08:58:11.360Z,4.00
2023-05-18T09:00:45.492Z,5.10
2023-05-18T09:03:16.888Z,5.70
2023-05-18T09:05:48.478Z,5.37
2023-05-18T09:08:27.002Z,5.57
2023-05-18T09:11:00.681Z,5.87
2023-05-18T09:13:32.384Z,2.90
2023-05-18T09:16:03.342Z,4.13
2023-05-18T09:18:35.866Z,4.20
2023-05-18T09:21:11.315Z,4.23
2023-05-18T09:23:43.726Z,5.93
2023-05-18T09:26:13.879Z,6.40
2023-05-18T09:28:45.996Z,7.50
2023-05-18T09:31:24.833Z,4.40
2023-05-18T09:33:58.285Z,4.47
2023-05-18T09:36:30.701Z,5.23
2023-05-18T09:39:00.946Z,5.33
2023-05-18T09:41:31.372Z,4.40
2023-05-18T09:44:05.578Z,5.80
2023-05-18T09:46:38.086Z,3.60
2023-05-18T09:49:12.163Z,4.47
2023-05-18T09:51:46.535Z,4.07
2023-05-18T09:54:16.319Z,6.40
2023-05-18T09:57:02.038Z,5.07
2023-05-18T09:59:42.594Z,3.13
2023-05-18T10:02:30.575Z,6.33
2023-05-18T10:05:03.837Z,6.13
2023-05-18T10:07:38.252Z,3.27
2023-05-18T10:10:10.432Z,6.97
2023-05-18T10:12:45.134Z,5.67
2023-05-18T10:15:18.458Z,4.53
2023-05-18T10:17:57.571Z,4.40
2023-05-18T10:20:31.949Z,7.33
2023-05-18T10:23:07.193Z,3.27
2023-05-18T10:25:39.102Z,5.77
2023-05-18T10:28:14.469Z,3.73
2023-05-18T10:30:45.592Z,4.57
2023-05-18T10:33:28.359Z,6.00
2023-05-18T10:36:02.308Z,5.40
2023-05-18T10:38:33.128Z,4.43
2023-05-18T10:41:06.684Z,5.50
2023-05-18T10:43:40.648Z,6.10
2023-05-18T10:46:12.460Z,6.20
2023-05-18T10:48:46.820Z,7.67
2023-05-18T10:51:23.526Z,5.23
2023-05-18T10:53:56.456Z,3.87
2023-05-18T10:56:27.236Z,5.13
2023-05-18T10:59:00.558Z,4.93
2023-05-18T11:01:30.235Z,8.18
2023-05-18T11:04:08.842Z,7.80
2023-05-18T11:06:39.886Z,6.72
2023-05-18T11:09:10.195Z,5.10
2023-05-18T11:12:03.973Z,4.35
2023-05-18T11:14:37.642Z,6.68
2023-05-18T11:17:33.029Z,7.00
2023-05-18T11:20:18.833Z,5.68
2023-05-18T11:22:53.521Z,5.23
2023-05-18T11:25:51.600Z,5.07
2023-05-18T11:28:26.189Z,5.13
2023-05-18T11:30:58.346Z,6.50
2023-05-18T11:33:31.996Z,4.50
2023-05-18T11:36:11.874Z,4.43
2023-05-18T11:39:07.122Z,4.47
2023-05-18T11:41:39.510Z,5.05
2023-05-18T11:44:20.340Z,3.97
2023-05-18T11:47:01.686Z,4.00
2023-05-18T11:49:33.998Z,5.35
2023-05-18T11:52:10.082Z,3.60
2023-05-18T11:54:47.605Z,6.13
2023-05-18T12:00:12.137Z,5.05
2023-05-18T12:02:46.845Z,6.07
2023-05-18T12:05:18.062Z,5.60
2023-05-18T12:07:57.566Z,8.55
2023-05-18T12:10:32.414Z,4.88
2023-05-18T12:13:05.187Z,5.03
2023-05-18T12:15:36.067Z,5.25
2023-05-18T12:18:08.298Z,5.60
2023-05-18T12:20:41.557Z,4.80
2023-05-18T12:23:15.179Z,7.93
2023-05-18T12:25:51.206Z,7.25
2023-05-18T12:28:29.792Z,3.88
2023-05-18T12:31:07.710Z,4.63
2023-05-18T12:33:38.243Z,4.03
2023-05-18T12:36:13.459Z,5.40
2023-05-18T12:38:44.648Z,3.95
2023-05-18T12:41:27.149Z,5.70
2023-05-18T12:43:59.385Z,5.15
2023-05-18T12:46:29.581Z,5.60
2023-05-18T12:49:06.691Z,6.80
2023-05-18T12:51:38.756Z,6.38
2023-05-18T12:54:11.139Z,6.47
2023-05-18T12:57:01.884Z,4.88
2023-05-18T12:59:32.326Z,4.47
2023-05-18T13:02:03.366Z,5.25
2023-05-18T13:04:37.375Z,5.22
2023-05-18T13:07:08.040Z,7.10
2023-05-18T13:09:37.407Z,4.82
2023-05-18T13:12:10.030Z,5.32
2023-05-18T13:14:41.395Z,6.22
2023-05-18T13:17:12.221Z,7.25
2023-05-18T13:19:41.838Z,8.40
2023-05-18T13:22:11.434Z,11.52
2023-05-18T13:24:43.100Z,7.55
2023-05-18T13:27:14.795Z,5.82
2023-05-18T13:29:44.907Z,4.93
2023-05-18T13:32:15.202Z,6.40
2023-05-18T13:34:44.871Z,6.57
2023-05-18T13:37:14.911Z,5.63
2023-05-18T13:39:46.122Z,5.68
2023-05-18T13:42:21.879Z,6.28
2023-05-18T13:44:51.818Z,5.53
2023-05-18T13:47:23.124Z,6.05
2023-05-18T13:49:57.347Z,4.60
2023-05-18T13:52:28.221Z,6.40
2023-05-18T13:54:57.812Z,6.15
2023-05-18T13:57:31.483Z,4.97
2023-05-18T14:00:04.682Z,5.85
2023-05-18T14:02:35.478Z,6.30
2023-05-18T14:05:08.844Z,5.28
2023-05-18T14:07:41.481Z,6.32
2023-05-18T14:10:14.146Z,6.82
2023-05-18T14:12:45.745Z,7.65
2023-05-18T14:15:16.578Z,12.38
2023-05-18T14:17:47.722Z,13.75
2023-05-18T14:20:16.572Z,6.38
2023-05-18T14:22:46.476Z,5.38
2023-05-18T14:25:16.830Z,8.10
2023-05-18T14:27:50.408Z,10.68
2023-05-18T14:30:20.490Z,6.22
2023-05-18T14:32:50.622Z,6.15
2023-05-18T14:35:29.590Z,6.88
2023-05-18T14:38:00.890Z,6.47
2023-05-18T14:40:30.776Z,6.75
2023-05-18T14:43:02.411Z,4.75
2023-05-18T14:45:32.657Z,6.97
2023-05-18T14:48:05.238Z,6.22
2023-05-18T14:50:38.222Z,4.90
2023-05-18T14:53:08.293Z,5.95
2023-05-18T14:55:39.812Z,6.93
2023-05-18T14:58:17.238Z,6.07
2023-05-18T15:00:47.430Z,4.72
2023-05-18T15:03:21.444Z,5.60
2023-05-18T15:05:52.385Z,3.67
2023-05-18T15:08:24.879Z,5.82
2023-05-18T15:10:56.993Z,4.20
2023-05-18T15:13:34.258Z,7.00
2023-05-18T15:16:03.536Z,6.03
2023-05-18T15:18:34.484Z,3.58
2023-05-18T15:21:03.954Z,5.95
2023-05-18T15:24:32.142Z,5.47
2023-05-18T15:27:04.088Z,4.20
2023-05-18T15:29:43.211Z,6.03
2023-05-18T15:32:12.624Z,8.98
2023-05-18T15:34:42.180Z,4.97
2023-05-18T15:56:23.658Z,6.18
2023-05-18T15:58:52.597Z,5.03
2023-05-18T16:01:21.261Z,7.70
2023-05-18T16:03:49.963Z,4.90
2023-05-18T16:06:19.247Z,3.50
2023-05-18T16:08:47.706Z,4.65
2023-05-18T16:11:16.239Z,7.60
2023-05-18T16:13:47.789Z,5.43
2023-05-18T16:16:16.300Z,3.80
2023-05-18T16:18:44.818Z,4.07
2023-05-18T16:21:13.336Z,3.95
2023-05-18T16:23:42.465Z,5.22
2023-05-18T16:26:11.135Z,4.65
2023-05-18T16:28:40.148Z,5.38
2023-05-18T16:31:12.004Z,6.13
2023-05-18T16:33:41.373Z,4.55
2023-05-18T16:36:10.361Z,3.92
2023-05-18T16:38:39.286Z,6.03
2023-05-18T16:41:08.742Z,5.90
2023-05-18T16:43:39.107Z,5.35
2023-05-18T16:46:10.143Z,2.88
2023-05-18T16:48:39.048Z,4.45
2023-05-18T16:51:08.013Z,5.65
2023-05-18T16:53:37.086Z,6.85
2023-05-18T16:56:07.262Z,4.50
2023-05-18T16:58:35.821Z,5.30
2023-05-18T17:01:15.881Z,4.72
2023-05-18T17:03:55.343Z,5.25
2023-05-18T17:06:24.077Z,6.13
2023-05-18T17:08:57.639Z,4.60
2023-05-18T17:11:27.827Z,4.28
2023-05-18T17:13:57.902Z,4.82
2023-05-18T17:16:28.444Z,4.28
2023-05-18T17:18:58.663Z,4.88
2023-05-18T17:21:28.348Z,4.43
2023-05-18T17:23:56.954Z,4.60
2023-05-18T17:26:30.384Z,4.65
2023-05-18T17:28:58.950Z,5.95
2023-05-18T17:31:27.765Z,4.93
2023-05-18T17:33:57.771Z,4.00
2023-05-18T17:36:26.918Z,4.53
2023-05-18T17:38:56.295Z,3.28
2023-05-18T17:41:25.967Z,3.85
2023-05-18T17:43:54.535Z,3.75
2023-05-18T17:46:23.047Z,6.40
2023-05-18T17:48:51.499Z,4.68
2023-05-18T17:51:21.987Z,8.05
2023-05-18T17:53:50.517Z,5.93
2023-05-18T17:56:19.013Z,5.03
2023-05-18T17:58:47.786Z,4.63
2023-05-18T18:01:16.268Z,5.03
2023-05-18T18:03:44.770Z,3.60
2023-05-18T18:06:13.339Z,4.40
2023-05-18T18:08:43.131Z,5.53
2023-05-18T18:11:11.530Z,6.05
2023-05-18T18:13:39.959Z,5.65
2023-05-18T18:16:09.079Z,6.90
2023-05-18T18:18:38.251Z,4.82
2023-05-18T18:21:07.715Z,6.65
2023-05-18T18:23:37.070Z,5.80
2023-05-18T18:26:08.031Z,4.68
2023-05-18T18:28:37.106Z,4.47
2023-05-18T18:31:07.226Z,5.72
2023-05-18T18:33:36.700Z,4.72
2023-05-18T18:36:07.409Z,5.22
2023-05-18T18:38:36.896Z,6.85
2023-05-18T18:41:07.197Z,7.20
2023-05-18T18:43:38.811Z,6.70
2023-05-18T18:46:10.703Z,5.17
2023-05-18T18:48:40.397Z,5.63
2023-05-18T18:51:08.955Z,5.83
2023-05-18T18:53:37.354Z,5.07
2023-05-18T18:56:07.468Z,7.67
2023-05-18T18:58:36.030Z,5.97
2023-05-18T19:01:04.688Z,4.23
2023-05-18T19:03:33.311Z,8.07
2023-05-18T19:06:02.190Z,7.97
2023-05-18T19:08:31.592Z,5.13
2023-05-18T19:10:59.952Z,5.87
2023-05-18T19:13:29.739Z,6.30
2023-05-18T19:15:58.253Z,7.50
2023-05-18T19:18:26.815Z,7.40
2023-05-18T19:20:55.188Z,6.47
2023-05-18T19:23:23.628Z,6.70
2023-05-18T19:25:51.972Z,5.00
2023-05-18T19:28:20.401Z,7.70
2023-05-18T19:30:50.084Z,6.60
2023-05-18T19:33:18.484Z,9.53
2023-05-18T19:35:46.974Z,6.00
2023-05-18T19:38:15.705Z,8.87
2023-05-18T19:40:44.026Z,6.30
2023-05-18T19:43:12.438Z,6.13
2023-05-18T19:45:41.043Z,7.53
2023-05-18T19:48:11.108Z,8.03
2023-05-18T19:50:39.591Z,7.80
2023-05-18T19:53:08.246Z,8.03
2023-05-18T19:55:36.929Z,7.53
2023-05-18T19:58:05.372Z,9.63
2023-05-18T20:00:34.579Z,5.50
2023-05-18T20:03:04.012Z,8.00
2023-05-18T20:05:34.532Z,8.77
2023-05-18T20:08:03.276Z,8.53
2023-05-18T20:10:31.968Z,9.83
2023-05-18T20:13:00.998Z,10.50
2023-05-18T20:15:32.384Z,9.07
2023-05-18T20:18:01.949Z,8.27
2023-05-18T20:20:33.473Z,7.67
2023-05-18T20:23:03.814Z,8.73
2023-05-18T20:25:34.998Z,10.10
2023-05-18T20:28:07.398Z,8.73
2023-05-18T20:30:36.475Z,7.27
2023-05-18T20:33:05.443Z,7.37
2023-05-18T20:35:34.710Z,7.60
2023-05-18T20:38:04.893Z,12.33
2023-05-18T20:40:33.712Z,7.83
2023-05-18T20:43:02.420Z,8.80
2023-05-18T20:45:31.479Z,6.90
2023-05-18T20:48:00.808Z,10.40
2023-05-18T20:50:29.408Z,8.50
2023-05-18T20:52:57.913Z,10.40
2023-05-18T20:55:29.108Z,7.60
2023-05-18T20:57:57.744Z,9.50
2023-05-18T21:00:26.119Z,8.67
2023-05-18T21:02:54.526Z,9.97
2023-05-18T21:05:23.407Z,8.47
2023-05-18T21:07:53.586Z,8.73
2023-05-18T21:10:22.052Z,6.37
2023-05-18T21:12:51.817Z,9.63
2023-05-18T21:15:20.346Z,9.13
2023-05-18T21:17:48.782Z,7.83
2023-05-18T21:20:17.233Z,9.70
2023-05-18T21:22:45.687Z,9.47
2023-05-18T21:25:14.093Z,11.17
2023-05-18T21:27:42.600Z,8.70
2023-05-18T21:30:15.782Z,12.30
2023-05-18T21:32:44.695Z,9.13
2023-05-18T21:35:13.242Z,8.57
2023-05-18T21:37:41.857Z,8.57
2023-05-18T21:40:11.282Z,11.07
2023-05-18T21:42:45.041Z,10.37
2023-05-18T21:45:15.093Z,14.60
2023-05-18T21:47:43.584Z,12.10
2023-05-18T21:50:12.763Z,9.33
2023-05-18T21:52:41.452Z,11.60
2023-05-18T21:55:11.092Z,13.90
2023-05-18T21:57:39.507Z,9.43
2023-05-18T22:00:12.333Z,12.47
2023-05-18T22:02:42.194Z,9.33
2023-05-18T22:05:11.414Z,7.57
2023-05-18T22:07:42.448Z,14.23
2023-05-18T22:10:11.734Z,11.90
2023-05-18T22:12:41.147Z,11.27
2023-05-18T22:15:11.659Z,11.80
2023-05-18T22:17:41.647Z,10.77
2023-05-18T22:20:11.711Z,13.60
2023-05-18T22:22:41.414Z,12.30
2023-05-18T22:25:10.829Z,12.23
2023-05-18T22:27:39.339Z,12.27
2023-05-18T22:30:09.089Z,11.47
2023-05-18T22:32:38.272Z,10.03
2023-05-18T22:35:10.770Z,10.63
2023-05-18T22:37:39.150Z,14.07
2023-05-18T22:40:09.932Z,14.90
2023-05-18T22:42:38.513Z,11.07
2023-05-18T22:45:08.420Z,13.87
2023-05-18T22:47:39.078Z,12.40
2023-05-18T22:50:10.759Z,14.60
2023-05-18T22:52:40.623Z,14.80
2023-05-18T22:55:13.162Z,9.77
2023-05-18T22:57:41.641Z,9.83
2023-05-18T23:00:11.940Z,12.43
2023-05-18T23:02:41.098Z,13.43
2023-05-18T23:05:11.404Z,11.67
2023-05-18T23:07:41.897Z,12.23
2023-05-18T23:10:12.349Z,11.53
2023-05-18T23:12:45.628Z,10.40
2023-05-18T23:15:14.288Z,16.37
2023-05-18T23:17:42.718Z,15.53
2023-05-18T23:20:14.024Z,13.13
2023-05-18T23:22:42.445Z,12.77
2023-05-18T23:25:11.276Z,13.57
2023-05-18T23:27:39.794Z,17.33
2023-05-18T23:30:09.515Z,14.27
2023-05-18T23:32:38.998Z,16.73
2023-05-18T23:35:10.120Z,14.00
2023-05-18T23:37:43.259Z,16.37
2023-05-18T23:40:13.910Z,14.90
2023-05-18T23:42:43.066Z,12.60
2023-05-18T23:45:13.455Z,14.93
2023-05-18T23:47:42.621Z,12.10
2023-05-18T23:50:12.551Z,14.20
2023-05-18T23:52:43.909Z,13.60
2023-05-18T23:55:13.705Z,12.23
2023-05-18T23:57:42.820Z,12.63
